In Rescue
 
Open Full Screen Window  High Contrast Mode
Wind Gusting 19 knots
13
May 25, 2022 8:24 PM CDT
Weather Information
Wind Direction
  010 °
Wind Speed
  13 kt (15 mph)
Wind Gust
  19 kt (22 mph)
Altimeter
29.85 in
Visibility
10 SM
Temperature
10° C
50° F
Dewpoint
09° C
48° F
Humidity
94%
1hr Rain Fall
00.00 in.
24hr Rain Fall
00.02 in.
Sky Condition
Broken @ 1,200 ft
Scattered @ 700 ft
MVFR

METAR KMWM 260124Z AUTO 01013G19KT 10SM SCT007 BKN012 10/09 A2985 RMK AO2

FAA Disclaimer: The data displayed is for advisory purposes only and is not to be used for flight planning or operations.